Time;durP1;ratioP1;P1;durP2;ratioP2;P2;SDS_P1;SDS_P2;PMS_P1;PMS_P2;Temp;Humidity;BMP_temperature;BMP_pressure;BME280_temperature;BME280_humidity;BME280_pressure;Samples;Min_cycle;Max_cycle;Signal;HPM_P1;HPM_P2
2022/12/21 00:01:21;;;;;;;18.80;10.70;;;8.40;99.90;;;6.73;100.00;100160.28;4933048;29;20495;-85
2022/12/21 00:03:52;;;;;;;17.27;10.48;;;8.30;99.90;;;6.76;100.00;100163.44;4931853;29;20036;-83
2022/12/21 00:06:18;;;;;;;15.75;10.70;;;8.30;99.90;;;6.78;100.00;100165.13;4933017;29;20039;-84
2022/12/21 00:08:46;;;;;;;16.48;11.43;;;8.30;99.90;;;6.77;100.00;100158.88;4916834;29;20047;-86
2022/12/21 00:11:14;;;;;;;18.58;11.85;;;8.30;99.90;;;6.75;100.00;100159.06;4933456;29;20121;-84
2022/12/21 00:13:41;;;;;;;17.67;11.88;;;8.30;99.90;;;6.73;100.00;100155.72;4930680;29;20436;-85
2022/12/21 00:16:12;;;;;;;19.83;12.30;;;8.30;99.90;;;6.74;100.00;100159.25;4933544;29;20169;-85
2022/12/21 00:18:38;;;;;;;18.73;11.55;;;8.30;99.90;;;6.72;100.00;100151.34;4933938;29;20407;-86
2022/12/21 00:21:09;;;;;;;20.52;12.55;;;8.30;99.90;;;6.69;100.00;100162.59;4934547;29;20475;-86
2022/12/21 00:23:35;;;;;;;18.88;12.60;;;8.20;99.90;;;6.68;100.00;100160.94;4935823;29;20036;-86
2022/12/21 00:26:03;;;;;;;19.27;12.88;;;8.30;99.90;;;6.61;100.00;100141.91;4933969;29;20067;-87
2022/12/21 00:28:30;;;;;;;19.70;12.80;;;8.20;99.90;;;6.67;100.00;100140.28;4929465;29;20059;-86
2022/12/21 00:31:08;;;;;;;19.52;14.18;;;8.20;99.90;;;6.60;100.00;100133.97;4930927;29;20399;-87
2022/12/21 00:33:35;;;;;;;;;;;8.20;99.90;;;6.57;100.00;100132.53;4916126;29;20131;-86
2022/12/21 00:36:01;;;;;;;21.35;13.40;;;8.20;99.90;;;6.59;100.00;100135.00;4933352;29;19923;-87
2022/12/21 00:38:27;;;;;;;22.50;14.52;;;8.20;99.90;;;6.55;100.00;100129.19;4932022;29;20035;-87
2022/12/21 00:41:04;;;;;;;25.48;14.98;;;8.10;99.90;;;6.57;100.00;100127.09;4915947;29;20454;-85
2022/12/21 00:43:34;;;;;;;25.88;15.93;;;8.10;99.90;;;6.55;100.00;100120.19;4931094;29;20063;-86
2022/12/21 00:46:00;;;;;;;23.33;15.57;;;8.10;99.90;;;6.53;100.00;100120.44;4919509;29;20040;-87
2022/12/21 00:48:28;;;;;;;26.38;16.42;;;8.10;99.90;;;6.51;100.00;100124.38;4936082;29;20455;-87
2022/12/21 00:50:54;;;;;;;25.92;16.30;;;8.10;99.90;;;6.47;100.00;100129.34;4919226;29;20122;-86
2022/12/21 00:53:20;;;;;;;27.73;17.50;;;8.10;99.90;;;6.47;100.00;100127.47;4919001;29;20122;-86
2022/12/21 00:55:58;;;;;;;25.25;16.58;;;8.10;99.90;;;6.44;100.00;100122.47;4928169;29;20083;-86
2022/12/21 00:58:26;;;;;;;32.72;17.30;;;8.10;99.90;;;6.50;100.00;100131.69;4917939;29;20040;-86
2022/12/21 01:00:58;;;;;;;27.17;18.35;;;8.00;99.90;;;6.50;100.00;100128.13;4934671;29;20054;-86
2022/12/21 01:03:27;;;;;;;29.77;18.70;;;8.10;99.90;;;6.53;100.00;100131.25;4917615;29;20047;-86
2022/12/21 01:05:54;;;;;;;31.05;18.48;;;8.10;99.90;;;6.52;100.00;100121.47;4918087;29;20122;-85
2022/12/21 01:08:22;;;;;;;29.10;18.83;;;8.10;99.90;;;6.52;100.00;100129.59;4917943;29;20391;-87
2022/12/21 01:10:48;;;;;;;28.95;18.55;;;8.10;99.90;;;6.45;100.00;100120.59;4934981;29;20054;-86
2022/12/21 01:13:15;;;;;;;30.95;19.38;;;8.00;99.90;;;6.44;100.00;100122.47;4918021;29;20118;-86
2022/12/21 01:15:46;;;;;;;30.77;19.55;;;8.00;99.90;;;6.48;100.00;100128.31;4935315;29;20471;-86
2022/12/21 01:18:14;;;;;;;29.58;18.77;;;8.00;99.90;;;6.47;100.00;100140.19;4917863;29;20422;-87
2022/12/21 01:20:44;;;;;;;29.65;19.45;;;8.00;99.90;;;6.53;100.00;100141.25;4936006;29;20296;-86
2022/12/21 01:23:10;;;;;;;31.65;19.90;;;8.10;99.90;;;6.50;100.00;100136.25;4917828;29;20407;-86
2022/12/21 01:25:36;;;;;;;32.67;20.38;;;8.10;99.90;;;6.44;100.00;100140.59;4935601;29;20043;-85
2022/12/21 01:28:02;;;;;;;30.98;19.60;;;8.10;99.90;;;6.46;100.00;100142.06;4928205;29;20108;-86
2022/12/21 01:30:28;;;;;;;32.35;20.55;;;8.10;99.90;;;6.45;100.00;100140.41;4918541;29;20487;-86
2022/12/21 01:32:54;;;;;;;30.85;19.98;;;8.10;99.90;;;6.52;100.00;100150.44;4918860;29;20126;-86
2022/12/21 01:35:21;;;;;;;30.48;20.02;;;8.10;99.90;;;6.53;100.00;100143.97;4935609;29;20499;-86
2022/12/21 01:37:47;;;;;;;34.67;20.83;;;8.10;99.90;;;6.49;100.00;100148.94;4932382;29;20044;-85
2022/12/21 01:40:13;;;;;;;34.08;21.20;;;8.10;99.90;;;6.48;100.00;100142.69;4931689;29;20028;-87
2022/12/21 01:42:39;;;;;;;30.40;20.05;;;8.10;99.90;;;6.44;100.00;100135.16;4936221;29;20087;-86
2022/12/21 01:45:30;;;;;;;37.08;21.90;;;8.00;99.90;;;6.44;100.00;100133.31;4938008;29;20076;-87
2022/12/21 01:48:01;;;;;;;33.30;21.20;;;8.00;99.90;;;6.44;100.00;100141.44;4937027;29;20554;-86
2022/12/21 01:50:55;;;;;;;32.17;20.13;;;8.00;99.90;;;6.43;100.00;100136.22;4917801;29;20036;-86
2022/12/21 01:53:23;;;;;;;35.90;21.73;;;8.00;99.90;;;6.42;100.00;100140.81;4916317;29;20075;-87
2022/12/21 01:55:55;;;;;;;33.03;21.20;;;8.00;99.90;;;6.43;100.00;100142.47;4939881;29;20051;-88
2022/12/21 01:58:26;;;;;;;35.30;22.02;;;8.00;99.90;;;6.43;100.00;100134.34;4913322;29;20127;-88
2022/12/21 02:00:55;;;;;;;34.85;22.00;;;8.00;99.90;;;6.42;100.00;100135.38;4935700;29;20452;-85
2022/12/21 02:03:26;;;;;;;35.33;23.80;;;8.00;99.90;;;6.42;100.00;100135.38;4935459;29;20040;-86
2022/12/21 02:06:10;;;;;;;37.90;23.02;;;8.00;99.90;;;6.43;100.00;100133.50;4935793;29;20082;-85
2022/12/21 02:08:36;;;;;;;37.22;23.02;;;8.00;99.90;;;6.46;100.00;100135.81;4924307;29;20035;-86
2022/12/21 02:11:04;;;;;;;39.05;23.98;;;8.00;99.90;;;6.45;100.00;100136.84;4936113;29;20144;-86
2022/12/21 02:13:30;;;;;;;34.92;21.88;;;8.00;99.90;;;6.44;100.00;100133.31;4940322;29;20484;-87
2022/12/21 02:15:58;;;;;;;35.58;23.17;;;8.00;99.90;;;6.46;100.00;100139.38;4920103;29;20046;-87
2022/12/21 02:18:42;;;;;;;36.90;23.08;;;8.00;99.90;;;6.44;100.00;100141.44;4936584;29;20041;-87
2022/12/21 02:21:39;;;;;;;38.40;24.85;;;8.00;99.90;;;6.42;100.00;100134.53;4902839;29;20447;-87
2022/12/21 02:24:35;;;;;;;36.08;24.20;;;8.00;99.90;;;6.43;100.00;100137.06;4912596;29;20042;-87
2022/12/21 02:27:55;;;;;;;37.70;23.98;;;8.00;99.90;;;6.47;100.00;100135.63;4934528;29;20123;-86
2022/12/21 02:30:23;;;;;;;36.78;23.65;;;8.00;99.90;;;6.47;100.00;100137.47;4922531;29;20186;-87
2022/12/21 02:33:18;;;;;;;36.05;23.52;;;8.00;99.90;;;6.45;100.00;100134.13;4918308;29;20048;-88
2022/12/21 02:36:20;;;;;;;36.78;23.73;;;8.00;99.90;;;6.41;100.00;100136.44;4912452;29;20035;-87
2022/12/21 02:39:21;;;;;;;41.28;24.15;;;8.00;99.90;;;6.45;100.00;100137.69;4914270;29;20507;-86
2022/12/21 02:45:42;;;;;;;38.78;24.35;;;8.00;99.90;;;6.45;100.00;100139.56;4914728;29;20028;-87
2022/12/21 02:48:26;;;;;;;35.20;23.53;;;8.00;99.90;;;6.42;100.00;100132.69;4890751;29;20507;-87
2022/12/21 02:51:00;;;;;;;38.70;23.92;;;8.00;99.90;;;6.37;100.00;100129.75;4910857;29;20319;-86
2022/12/21 02:53:34;;;;;;;37.10;24.25;;;8.00;99.90;;;6.41;100.00;100138.28;4916430;29;20039;-87
2022/12/21 02:56:00;;;;;;;41.35;24.35;;;8.00;99.90;;;6.43;100.00;100147.06;4934667;29;20087;-88
2022/12/21 02:58:26;;;;;;;39.60;24.95;;;8.00;99.90;;;6.44;100.00;100152.28;4934542;29;20043;-86
2022/12/21 03:00:52;;;;;;;35.75;24.17;;;8.00;99.90;;;6.41;100.00;100144.56;4917192;29;20407;-83
2022/12/21 03:03:52;;;;;;;39.38;24.25;;;8.00;99.90;;;6.43;100.00;100147.06;4933214;29;20032;-85
2022/12/21 03:06:56;;;;;;;42.58;25.45;;;8.00;99.90;;;6.41;100.00;100141.84;4931029;29;20118;-83
2022/12/21 03:09:58;;;;;;;38.25;24.63;;;8.00;99.90;;;6.43;100.00;100142.47;4897504;29;20040;-84
2022/12/21 03:13:12;;;;;;;36.22;24.45;;;8.00;99.90;;;6.40;100.00;100139.31;4926434;29;20035;-83
2022/12/21 03:16:13;;;;;;;35.40;23.83;;;8.00;99.90;;;6.39;100.00;100135.78;4928997;29;20040;-85
2022/12/21 03:19:13;;;;;;;36.03;23.88;;;8.00;99.90;;;6.43;100.00;100147.06;4933644;29;20035;-84
2022/12/21 03:21:49;;;;;;;35.03;23.92;;;8.00;99.90;;;6.42;100.00;100135.38;4915523;29;20040;-84
2022/12/21 03:24:42;;;;;;;35.67;23.50;;;8.00;99.90;;;6.38;100.00;100130.56;4915567;29;20050;-83
2022/12/21 03:27:18;;;;;;;36.70;24.08;;;8.00;99.90;;;6.40;100.00;100136.63;4911886;29;20042;-82
2022/12/21 03:29:52;;;;;;;34.78;24.27;;;8.00;99.90;;;6.41;100.00;100141.00;4933679;29;20043;-82
2022/12/21 03:32:31;;;;;;;37.13;24.40;;;7.90;99.90;;;6.38;100.00;100128.72;4930566;29;20090;-82
2022/12/21 03:34:59;;;;;;;37.67;24.38;;;8.00;99.90;;;6.44;100.00;100140.59;4916327;29;20122;-83
2022/12/21 03:37:33;;;;;;;36.58;23.83;;;8.00;99.90;;;6.47;100.00;100140.19;4933595;29;20172;-83
2022/12/21 03:40:15;;;;;;;37.22;24.90;;;8.00;99.90;;;6.42;100.00;100139.97;4917284;29;20075;-84
2022/12/21 03:42:54;;;;;;;38.80;24.92;;;8.00;99.90;;;6.37;100.00;100132.47;4918348;29;20075;-82
2022/12/21 03:45:29;;;;;;;40.05;26.02;;;8.00;99.90;;;6.40;100.00;100142.88;4935081;29;21132;-83
2022/12/21 03:48:06;;;;;;;42.75;26.48;;;8.00;99.90;;;6.41;100.00;100139.13;4935884;29;20464;-83
2022/12/21 03:50:39;;;;;;;42.47;26.65;;;8.00;99.90;;;6.39;100.00;100132.25;4934067;29;20599;-84
2022/12/21 03:53:32;;;;;;;42.08;26.42;;;8.00;99.90;;;6.42;100.00;100143.53;4934361;29;20047;-84
2022/12/21 03:56:04;;;;;;;38.78;25.90;;;8.00;99.90;;;6.41;100.00;100143.72;4915957;29;20171;-83
2022/12/21 03:58:31;;;;;;;44.58;27.55;;;8.00;99.90;;;6.35;100.00;100134.50;4935876;29;20043;-85
2022/12/21 04:01:07;;;;;;;44.83;28.20;;;8.00;99.90;;;6.37;100.00;100134.31;4934592;29;20496;-84
2022/12/21 04:03:42;;;;;;;44.85;27.25;;;8.00;99.90;;;6.38;100.00;100122.44;4916902;29;20551;-84
2022/12/21 04:06:15;;;;;;;41.28;26.63;;;8.00;99.90;;;6.40;100.00;100126.63;4934271;29;20491;-85
2022/12/21 04:08:42;;;;;;;43.75;28.13;;;8.00;99.90;;;6.41;100.00;100127.44;4934267;29;20054;-84
2022/12/21 04:12:35;;;;;;;47.00;28.48;;;8.00;99.90;;;6.39;100.00;100135.78;4916197;29;20039;-85
2022/12/21 04:13:55;;;;;;;48.80;28.38;;;8.00;99.90;;;6.38;100.00;100128.72;4932497;29;20055;-84
2022/12/21 04:16:21;;;;;;;47.80;28.88;;;8.00;99.90;;;6.37;100.00;100128.91;4932039;29;20339;-83
2022/12/21 04:21:31;;;;;;;47.70;28.83;;;8.00;99.90;;;6.34;100.00;100130.13;4935371;29;20075;-83
2022/12/21 04:29:24;;;;;;;56.95;30.90;;;7.90;99.90;;;6.33;100.00;100123.88;4916661;29;20368;-83
2022/12/21 04:31:50;;;;;;;51.50;30.02;;;7.90;99.90;;;6.36;100.00;100129.94;4935466;29;20066;-83
2022/12/21 04:34:16;;;;;;;50.75;30.33;;;7.90;99.90;;;6.32;100.00;100124.06;4934688;29;20047;-83
2022/12/21 04:39:26;;;;;;;48.70;30.05;;;7.90;99.90;;;6.31;100.00;100122.41;4930619;29;20075;-84
2022/12/21 04:41:52;;;;;;;52.05;29.48;;;7.90;99.90;;;6.33;100.00;100125.75;4916573;29;20028;-83
2022/12/21 04:44:17;;;;;;;49.40;31.10;;;7.90;99.90;;;6.32;100.00;100118.66;4934391;29;20074;-84
2022/12/21 04:46:43;;;;;;;50.92;30.23;;;7.90;99.90;;;6.31;100.00;100120.53;4942267;29;20036;-85
2022/12/21 04:49:09;;;;;;;51.47;30.48;;;7.90;99.90;;;6.29;100.00;100119.91;4917891;29;20059;-84
2022/12/21 04:51:34;;;;;;;51.40;29.80;;;7.90;99.90;;;6.28;100.00;100122.81;4935088;29;20047;-84
2022/12/21 04:54:03;;;;;;;51.95;30.55;;;7.90;99.90;;;6.31;100.00;100125.97;4935037;29;20048;-84
2022/12/21 04:56:29;;;;;;;52.85;30.17;;;7.90;99.90;;;6.28;100.00;100111.97;4934032;29;20047;-83
2022/12/21 04:58:54;;;;;;;51.00;29.73;;;7.90;99.90;;;6.31;100.00;100119.69;4934781;29;20035;-83
2022/12/21 05:01:21;;;;;;;54.47;30.95;;;7.90;99.90;;;6.30;100.00;100124.28;4935129;29;20042;-84
2022/12/21 05:03:49;;;;;;;57.13;30.17;;;7.90;99.90;;;6.30;100.00;100126.16;4939280;29;20046;-84
2022/12/21 05:06:17;;;;;;;52.05;30.23;;;7.90;99.90;;;6.36;100.00;100127.22;4924912;29;20043;-84
2022/12/21 05:08:44;;;;;;;58.47;31.35;;;7.90;99.90;;;6.33;100.00;100123.03;4937487;29;20040;-84
2022/12/21 05:11:21;;;;;;;59.25;31.35;;;7.90;99.90;;;6.33;100.00;100133.88;4933280;29;20046;-84
2022/12/21 05:13:47;;;;;;;57.00;30.43;;;7.90;99.90;;;6.33;100.00;100118.47;4890484;29;989671;-84
2022/12/21 05:16:18;;;;;;;55.47;29.90;;;7.90;99.90;;;6.30;100.00;100104.47;4929261;29;20103;-83
2022/12/21 05:18:44;;;;;;;57.25;30.25;;;7.90;99.90;;;6.37;100.00;100113.50;4915292;29;20131;-83
2022/12/21 05:21:11;;;;;;;60.15;31.95;;;7.90;99.90;;;6.29;100.00;100109.06;4934263;29;20044;-84
2022/12/21 05:23:38;;;;;;;59.63;31.70;;;7.90;99.90;;;6.33;100.00;100110.34;4935538;29;20051;-84
2022/12/21 05:26:06;;;;;;;63.58;31.08;;;7.90;99.90;;;6.36;100.00;100106.38;4935109;29;20036;-83
2022/12/21 05:28:31;;;;;;;54.08;30.30;;;7.90;99.90;;;6.34;100.00;100100.31;4928219;29;20043;-83
2022/12/21 05:30:57;;;;;;;61.42;30.67;;;7.90;99.90;;;6.33;100.00;100101.34;4934863;29;20383;-82
2022/12/21 05:33:23;;;;;;;56.50;29.90;;;7.90;99.90;;;6.38;100.00;100106.19;4913147;29;20086;-82
2022/12/21 05:35:49;;;;;;;53.13;27.33;;;7.90;99.90;;;6.38;100.00;100107.03;4907462;29;20048;-83
2022/12/21 05:38:15;;;;;;;54.78;29.33;;;7.90;99.90;;;6.35;100.00;100102.00;4932897;29;20035;-83
2022/12/21 05:40:50;;;;;;;56.55;28.50;;;7.90;99.90;;;6.36;100.00;100109.06;4934920;29;20550;-82
2022/12/21 05:43:16;;;;;;;55.17;28.63;;;7.90;99.90;;;6.38;100.00;100095.34;4935272;29;20189;-82
2022/12/21 05:45:43;;;;;;;54.17;29.35;;;7.90;99.90;;;6.36;100.00;100097.41;4934857;29;20031;-83
2022/12/21 05:48:09;;;;;;;53.20;28.48;;;7.90;99.90;;;6.33;100.00;100099.50;4934319;29;20115;-82
2022/12/21 05:50:39;;;;;;;56.20;29.10;;;7.90;99.90;;;6.27;100.00;100099.47;4933312;29;20035;-83
2022/12/21 05:53:05;;;;;;;54.35;27.40;;;7.90;99.90;;;6.27;100.00;100107.59;4935052;29;20582;-84
2022/12/21 05:55:31;;;;;;;53.47;29.10;;;7.80;99.90;;;6.24;100.00;100100.72;4934986;29;20667;-83
2022/12/21 05:57:57;;;;;;;56.30;29.60;;;7.80;99.90;;;6.24;100.00;100106.13;4936394;29;20046;-84
2022/12/21 06:00:23;;;;;;;56.97;29.42;;;7.80;99.90;;;6.26;100.00;100104.06;4938316;29;20059;-83
2022/12/21 06:02:48;;;;;;;57.22;29.40;;;7.80;99.90;;;6.28;100.00;100106.56;4935059;29;20402;-83
2022/12/21 06:05:14;;;;;;;56.42;29.15;;;7.80;99.90;;;6.27;100.00;100105.72;4934450;29;20028;-83
2022/12/21 06:07:40;;;;;;;58.35;30.00;;;7.80;99.90;;;6.23;100.00;100103.63;4896935;29;20046;-84
2022/12/21 06:10:07;;;;;;;63.42;30.58;;;7.80;99.90;;;6.13;100.00;100102.13;4935082;29;20035;-83
2022/12/21 06:12:34;;;;;;;61.83;30.58;;;7.70;99.90;;;6.13;100.00;100099.41;4918817;29;20369;-84
2022/12/21 06:15:00;;;;;;;63.75;29.40;;;7.70;99.90;;;6.09;100.00;100117.06;4920412;29;20572;-83
2022/12/21 06:17:30;;;;;;;55.40;29.48;;;7.70;99.90;;;6.07;100.00;100111.03;4900666;29;20126;-84
2022/12/21 06:19:56;;;;;;;62.33;31.48;;;7.70;99.90;;;6.02;100.00;100111.66;4916692;29;20401;-84
2022/12/21 06:22:22;;;;;;;63.10;29.20;;;7.60;99.90;;;6.01;100.00;100112.69;4934017;29;20046;-82
2022/12/21 06:24:47;;;;;;;64.78;30.55;;;7.70;99.90;;;6.08;100.00;100110.00;4934969;29;20043;-82
2022/12/21 06:27:13;;;;;;;64.65;30.80;;;7.70;99.90;;;6.12;100.00;100118.56;4934377;29;20444;-82
2022/12/21 06:29:39;;;;;;;62.20;29.65;;;7.70;99.90;;;6.13;100.00;100117.53;4916804;29;20047;-82
2022/12/21 06:32:04;;;;;;;66.53;30.00;;;7.70;99.90;;;6.10;100.00;100115.22;4934490;29;20050;-82
2022/12/21 06:34:30;;;;;;;59.05;28.85;;;7.70;99.90;;;6.14;100.00;100117.34;4934592;29;20569;-82
2022/12/21 06:36:56;;;;;;;62.88;30.23;;;7.70;99.90;;;6.15;100.00;100115.44;4934132;29;20101;-82
2022/12/21 06:39:21;;;;;;;61.80;30.48;;;7.70;99.90;;;6.18;100.00;100118.59;4915629;29;20578;-82
2022/12/21 06:41:47;;;;;;;60.28;29.58;;;7.70;99.90;;;6.11;100.00;100120.44;4934303;29;20036;-82
2022/12/21 06:44:13;;;;;;;63.83;30.15;;;7.70;99.90;;;6.06;100.00;100114.78;4910709;29;20443;-82
2022/12/21 06:46:38;;;;;;;61.08;30.08;;;7.70;99.90;;;6.07;100.00;100121.88;4930360;29;20051;-82
2022/12/21 06:49:05;;;;;;;60.38;30.13;;;7.70;99.90;;;6.10;100.00;100128.75;4917549;29;20510;-82
2022/12/21 06:51:30;;;;;;;60.47;29.30;;;7.70;99.90;;;6.09;100.00;100127.91;4916442;29;20541;-83
2022/12/21 06:53:56;;;;;;;59.70;29.35;;;7.70;99.90;;;6.07;100.00;100127.28;4933940;29;20035;-83
2022/12/21 06:56:30;;;;;;;114.30;33.03;;;7.70;99.90;;;6.06;100.00;100136.44;4916948;29;20443;-83
2022/12/21 06:58:56;;;;;;;81.35;30.75;;;7.70;99.90;;;6.03;100.00;100131.44;4933552;29;20495;-84
2022/12/21 07:01:26;;;;;;;88.22;30.08;;;7.70;99.90;;;6.04;100.00;100135.81;4931464;29;20131;-83
2022/12/21 07:03:53;;;;;;;64.57;30.67;;;7.60;99.90;;;6.04;100.00;100143.94;4933443;29;20479;-81
2022/12/21 07:06:21;;;;;;;131.75;31.67;;;7.70;99.90;;;6.04;100.00;100138.50;4933861;29;20111;-84
2022/12/21 07:08:47;;;;;;;;;;;7.60;99.90;;;6.02;100.00;100146.84;4935000;29;20542;-86
2022/12/21 07:11:17;;;;;;;172.45;32.38;;;7.60;99.90;;;6.03;100.00;100150.38;4933487;29;20389;-85
2022/12/21 07:13:45;;;;;;;118.75;32.42;;;7.60;99.90;;;5.98;100.00;100142.00;4933402;29;20107;-84
2022/12/21 07:16:13;;;;;;;80.10;31.42;;;7.60;99.90;;;6.01;100.00;100149.75;4934091;29;20107;-85
2022/12/21 07:18:39;;;;;;;71.57;31.45;;;7.60;99.90;;;6.02;100.00;100146.00;4935125;29;20039;-85
2022/12/21 07:21:10;;;;;;;73.70;32.00;;;7.60;99.90;;;6.08;100.00;100150.63;4917127;29;20040;-86
2022/12/21 07:23:38;;;;;;;76.20;31.67;;;7.70;99.90;;;6.11;100.00;100146.69;4897807;29;20111;-87
2022/12/21 07:26:14;;;;;;;72.22;32.08;;;7.70;99.90;;;6.11;100.00;100144.81;4903105;29;20472;-88
2022/12/21 07:28:40;;;;;;;82.72;32.53;;;7.70;99.90;;;6.12;100.00;100142.94;4937510;29;20039;-89
2022/12/21 07:31:09;;;;;;;88.28;32.92;;;7.70;99.90;;;6.14;100.00;100144.44;4936994;29;20060;-86
2022/12/21 07:33:37;;;;;;;89.82;32.22;;;7.70;99.90;;;6.12;100.00;100141.09;4929471;29;20032;-90
2022/12/21 07:36:06;;;;;;;80.35;31.63;;;7.70;99.90;;;6.13;100.00;100126.50;4931240;29;20048;-94
2022/12/21 07:38:35;;;;;;;74.78;30.98;;;7.80;99.90;;;6.09;100.00;100121.69;4922581;29;20106;-91
2022/12/21 07:41:04;;;;;;;94.57;33.60;;;7.70;99.90;;;6.18;100.00;100142.13;4897348;29;20035;-85
2022/12/21 07:43:31;;;;;;;92.38;32.88;;;7.80;99.90;;;6.17;100.00;100141.31;4930996;29;20055;-83
2022/12/21 07:46:09;;;;;;;81.65;30.58;;;7.80;99.90;;;6.20;100.00;100145.47;4918050;29;20060;-86
2022/12/21 07:48:35;;;;;;;82.13;30.63;;;7.80;99.90;;;6.19;100.00;100119.44;4939323;29;20035;-90
2022/12/21 07:51:02;;;;;;;83.40;31.50;;;7.80;99.90;;;6.24;100.00;100129.66;4921414;29;20451;-83
2022/12/21 07:53:28;;;;;;;80.95;30.27;;;7.80;99.90;;;6.16;100.00;100112.56;4939777;29;20122;-85
2022/12/21 07:55:59;;;;;;;81.00;30.60;;;7.80;99.90;;;6.22;100.00;100131.75;4944156;29;20110;-90
2022/12/21 07:58:25;;;;;;;85.00;33.80;;;7.80;99.90;;;6.31;100.00;100135.94;4920861;29;20127;-93
2022/12/21 08:00:51;;;;;;;87.50;32.78;;;7.90;99.90;;;6.31;100.00;100131.38;4941107;29;20044;-90
2022/12/21 08:03:17;;;;;;;88.68;32.35;;;7.90;99.90;;;6.34;100.00;100135.53;4923346;29;20084;-85
2022/12/21 08:05:45;;;;;;;95.68;32.72;;;7.90;99.90;;;6.37;100.00;100129.75;4938408;29;20039;-85
2022/12/21 08:08:10;;;;;;;87.05;31.90;;;7.90;99.90;;;6.39;100.00;100138.50;4937514;29;20028;-84
2022/12/21 08:10:36;;;;;;;87.47;31.88;;;7.90;99.90;;;6.41;100.00;100138.28;4921476;29;20046;-88
2022/12/21 08:13:02;;;;;;;89.30;30.33;;;8.00;99.90;;;6.41;100.00;100125.59;4937989;29;20058;-86
2022/12/21 08:15:27;;;;;;;86.60;31.60;;;8.00;99.90;;;6.45;100.00;100128.72;4937792;29;20517;-87
2022/12/21 08:17:53;;;;;;;86.60;31.40;;;8.00;99.90;;;6.48;100.00;100129.16;4937579;29;20043;-85
2022/12/21 08:20:19;;;;;;;81.90;29.77;;;8.00;99.90;;;6.50;100.00;100130.81;4937150;29;20095;-84
2022/12/21 08:22:45;;;;;;;88.57;30.75;;;8.00;99.90;;;6.48;100.00;100121.03;4937982;29;20130;-87
2022/12/21 08:25:11;;;;;;;92.15;32.63;;;8.10;99.90;;;6.50;100.00;100112.72;4938220;29;20126;-83
2022/12/21 08:27:37;;;;;;;86.72;32.28;;;8.10;99.90;;;6.55;100.00;100123.75;4936909;29;20145;-81
2022/12/21 08:30:06;;;;;;;88.47;31.50;;;8.10;99.90;;;6.59;100.00;100124.19;4937441;29;20448;-84
2022/12/21 08:32:32;;;;;;;81.93;31.60;;;8.20;99.90;;;6.58;100.00;100117.09;4939309;29;20128;-85
2022/12/21 08:34:57;;;;;;;82.57;31.58;;;8.20;99.90;;;6.66;100.00;100119.63;4918589;29;20051;-84
2022/12/21 08:37:23;;;;;;;78.40;30.25;;;8.20;99.90;;;6.60;100.00;100110.44;4936380;29;20036;-88
2022/12/21 08:39:49;;;;;;;80.45;31.05;;;8.20;99.90;;;6.66;100.00;100118.78;4937569;29;20372;-88
2022/12/21 08:42:14;;;;;;;76.38;29.98;;;8.20;99.90;;;6.68;100.00;100117.56;4937259;29;20047;-85
2022/12/21 08:44:40;;;;;;;73.68;29.33;;;8.20;99.90;;;6.70;100.00;100115.47;4936879;29;20503;-88
2022/12/21 08:47:06;;;;;;;72.35;29.17;;;8.30;99.90;;;6.74;100.00;100111.31;4932229;29;20043;-81
2022/12/21 08:49:32;;;;;;;75.80;30.45;;;8.30;99.90;;;6.73;100.00;100114.22;4933988;29;20047;-84
2022/12/21 08:51:58;;;;;;;72.57;30.08;;;8.30;99.90;;;6.73;100.00;100117.78;4936386;29;20067;-82
2022/12/21 08:54:25;;;;;;;63.85;28.80;;;8.30;99.90;;;6.71;100.00;100116.28;4936604;29;20101;-82
2022/12/21 08:56:51;;;;;;;67.22;31.15;;;8.30;99.90;;;6.72;100.00;100117.97;4918753;29;20066;-84
2022/12/21 08:59:16;;;;;;;66.13;30.63;;;8.30;99.90;;;6.75;100.00;100128.38;4936219;29;20632;-82
2022/12/21 09:01:42;;;;;;;63.05;29.17;;;8.30;99.90;;;6.76;100.00;100130.06;4936532;29;20035;-81
2022/12/21 09:04:08;;;;;;;63.35;29.17;;;8.30;99.90;;;6.72;100.00;100117.97;4935867;29;20451;-84
2022/12/21 09:06:33;;;;;;;59.25;29.55;;;8.30;99.90;;;6.72;100.00;100129.66;4935927;29;20028;-86
2022/12/21 09:08:59;;;;;;;58.40;28.17;;;8.30;99.90;;;6.68;100.00;100127.53;4938065;29;20407;-87
2022/12/21 09:11:27;;;;;;;61.97;29.50;;;8.30;99.90;;;6.70;100.00;100130.88;4935816;29;20032;-85
2022/12/21 09:13:53;;;;;;;58.40;28.65;;;8.30;99.90;;;6.72;100.00;100137.78;4936622;29;20059;-83
2022/12/21 09:16:24;;;;;;;62.38;29.95;;;8.30;99.90;;;6.74;100.00;100126.72;4928355;29;20399;-82
2022/12/21 09:18:51;;;;;;;62.20;28.92;;;8.30;99.90;;;6.82;100.00;100139.25;4935650;29;20142;-82
2022/12/21 09:21:20;;;;;;;62.00;30.48;;;8.40;99.90;;;6.78;100.00;100138.00;4936393;29;20127;-83
2022/12/21 09:23:47;;;;;;;57.78;28.55;;;8.40;99.90;;;6.76;100.00;100144.47;4939483;29;20043;-82
2022/12/21 09:26:14;;;;;;;62.38;28.20;;;8.40;99.90;;;6.69;100.00;100148.19;4940039;29;20039;-82
2022/12/21 09:28:40;;;;;;;61.42;27.55;;;8.30;99.90;;;6.75;100.00;100155.50;4938529;29;20050;-82
2022/12/21 09:31:13;;;;;;;62.13;27.20;;;8.30;99.90;;;6.72;100.00;100156.75;4919333;29;20047;-83
2022/12/21 09:33:40;;;;;;;61.15;28.45;;;8.30;99.90;;;6.73;100.00;100153.00;4928367;29;20452;-82
2022/12/21 09:36:08;;;;;;;58.22;27.05;;;8.30;99.90;;;6.71;100.00;100151.53;4937619;29;20032;-82
2022/12/21 09:38:35;;;;;;;60.78;27.42;;;8.30;99.90;;;6.75;100.00;100150.94;4936168;29;20078;-82
2022/12/21 09:41:06;;;;;;;62.65;27.52;;;8.30;99.90;;;6.81;100.00;100143.00;4936461;29;20038;-82
2022/12/21 09:43:50;;;;;;;62.20;29.20;;;8.40;99.90;;;6.88;100.00;100135.72;4934017;29;20126;-83
2022/12/21 09:46:17;;;;;;;56.42;26.42;;;8.40;99.90;;;6.84;100.00;100126.34;4916795;29;20115;-84
2022/12/21 09:48:58;;;;;;;62.97;28.17;;;8.50;99.90;;;6.92;100.00;100134.31;4935537;29;20027;-84
2022/12/21 09:51:27;;;;;;;55.90;26.20;;;8.50;99.90;;;6.94;100.00;100132.22;4934779;29;20358;-84
2022/12/21 09:54:15;;;;;;;57.47;25.48;;;8.50;99.90;;;6.93;100.00;100133.25;4935332;29;20039;-83
2022/12/21 09:56:47;;;;;;;53.63;25.65;;;8.50;99.90;;;6.98;100.00;100132.63;4917788;29;20391;-84
2022/12/21 09:59:18;;;;;;;57.67;27.45;;;8.50;99.90;;;6.97;100.00;100128.25;4935270;29;20433;-84
2022/12/21 10:02:30;;;;;;;55.67;25.35;;;8.50;99.90;;;6.98;100.00;100132.63;4918596;29;20043;-83
2022/12/21 10:05:46;;;;;;;52.08;25.08;;;8.60;99.90;;;6.94;100.00;100137.63;4934423;29;20044;-83
2022/12/21 10:08:46;;;;;;;49.15;24.15;;;8.50;99.90;;;6.93;100.00;100135.13;4935129;29;20391;-84
2022/12/21 10:11:39;;;;;;;48.65;23.98;;;8.50;99.90;;;6.94;100.00;100134.06;4909843;29;20403;-84
2022/12/21 10:14:35;;;;;;;51.40;24.00;;;8.50;99.90;;;6.89;100.00;100132.81;4916558;29;20055;-84
2022/12/21 10:17:35;;;;;;;52.22;23.98;;;8.50;99.90;;;6.85;100.00;100136.13;4933937;29;20046;-84
2022/12/21 10:20:22;;;;;;;;;;;8.40;99.90;;;6.81;100.00;100130.31;4922671;29;20221;-84
2022/12/21 10:22:56;;;;;;;49.25;23.98;;;8.40;99.90;;;6.80;100.00;100125.06;4931599;29;19923;-85
2022/12/21 10:25:27;;;;;;;50.22;23.92;;;8.40;99.90;;;6.82;100.00;100123.84;4934951;29;20054;-85
2022/12/21 10:28:15;;;;;;;53.03;24.67;;;;;;;6.85;100.00;100125.28;4934734;29;20040;-84
2022/12/21 10:30:45;;;;;;;48.75;23.48;;;;;;;6.87;100.00;100126.78;4934996;29;20067;-84
2022/12/21 10:33:12;;;;;;;46.45;23.23;;;;;;;6.93;100.00;100117.00;4917277;29;20048;-84
2022/12/21 10:35:39;;;;;;;47.20;23.00;;;;;;;6.98;100.00;100109.06;4917356;29;20123;-84
2022/12/21 10:38:15;;;;;;;48.22;23.58;;;;;;;6.99;100.00;100110.72;4934047;29;20290;-84
2022/12/21 10:40:47;;;;;;;46.47;22.40;;;;;;;7.00;100.00;100120.53;4934433;29;20039;-84